createdAt,value
2022-11-01T00:01:23.131Z,7.33
2022-11-01T00:03:51.009Z,8.50
2022-11-01T00:06:20.369Z,8.53
2022-11-01T00:08:48.239Z,8.00
2022-11-01T00:11:17.888Z,7.67
2022-11-01T00:13:46.025Z,12.77
2022-11-01T00:16:14.402Z,7.83
2022-11-01T00:18:42.297Z,10.60
2022-11-01T00:21:10.632Z,8.20
2022-11-01T00:23:39.819Z,8.00
2022-11-01T00:26:07.838Z,10.50
2022-11-01T00:28:35.789Z,9.53
2022-11-01T00:31:06.544Z,7.10
2022-11-01T00:33:37.447Z,9.63
2022-11-01T00:36:05.283Z,10.60
2022-11-01T00:38:33.317Z,7.33
2022-11-01T00:41:04.494Z,9.13
2022-11-01T00:43:32.508Z,11.13
2022-11-01T00:46:00.848Z,8.53
2022-11-01T00:48:28.854Z,9.83
2022-11-01T00:50:56.828Z,12.67
2022-11-01T00:53:25.285Z,11.07
2022-11-01T00:55:53.008Z,11.53
2022-11-01T00:58:22.002Z,7.10
2022-11-01T01:00:49.770Z,7.27
2022-11-01T01:03:17.452Z,7.03
2022-11-01T01:05:45.490Z,9.13
2022-11-01T01:08:13.131Z,9.87
2022-11-01T01:10:40.806Z,8.00
2022-11-01T01:13:09.029Z,9.60
2022-11-01T01:15:38.542Z,9.83
2022-11-01T01:18:06.708Z,7.10
2022-11-01T01:20:34.500Z,16.00
2022-11-01T01:23:02.826Z,8.17
2022-11-01T01:25:30.638Z,7.70
2022-11-01T01:27:58.443Z,7.90
2022-11-01T01:30:26.172Z,8.30
2022-11-01T01:32:55.240Z,6.53
2022-11-01T01:35:23.288Z,7.20
2022-11-01T01:37:52.062Z,8.37
2022-11-01T01:40:20.681Z,7.17
2022-11-01T01:42:48.375Z,8.43
2022-11-01T01:45:33.018Z,9.73
2022-11-01T01:48:10.983Z,7.30
2022-11-01T01:50:41.517Z,10.17
2022-11-01T01:53:13.907Z,8.07
2022-11-01T01:55:44.013Z,9.57
2022-11-01T01:58:12.129Z,9.77
2022-11-01T02:00:40.339Z,9.47
2022-11-01T02:03:09.592Z,6.63
2022-11-01T02:05:40.584Z,8.03
2022-11-01T02:08:08.307Z,8.00
2022-11-01T02:10:36.346Z,8.63
2022-11-01T02:13:04.182Z,7.50
2022-11-01T02:15:41.006Z,7.90
2022-11-01T02:18:16.130Z,6.87
2022-11-01T02:21:01.406Z,9.03
2022-11-01T02:23:58.751Z,6.97
2022-11-01T02:26:55.643Z,8.17
2022-11-01T02:29:32.734Z,7.73
2022-11-01T02:32:08.123Z,10.30
2022-11-01T02:34:37.313Z,9.63
2022-11-01T02:37:10.211Z,9.67
2022-11-01T02:39:40.566Z,7.37
2022-11-01T02:42:11.429Z,9.93
2022-11-01T02:44:41.111Z,10.83
2022-11-01T02:47:12.742Z,7.00
2022-11-01T02:49:41.816Z,10.37
2022-11-01T02:52:11.243Z,7.60
2022-11-01T02:54:40.164Z,9.20
2022-11-01T02:57:18.966Z,7.27
2022-11-01T02:59:48.459Z,8.57
2022-11-01T03:02:19.766Z,12.00
2022-11-01T03:04:48.033Z,8.70
2022-11-01T03:07:16.255Z,7.90
2022-11-01T03:09:43.977Z,9.90
2022-11-01T03:12:15.928Z,8.13
2022-11-01T03:14:48.293Z,9.37
2022-11-01T03:17:21.152Z,7.33
2022-11-01T03:19:50.437Z,11.43
2022-11-01T03:22:19.473Z,7.40
2022-11-01T03:24:49.084Z,12.90
2022-11-01T03:27:19.233Z,7.17
2022-11-01T03:29:49.280Z,9.90
2022-11-01T03:32:18.734Z,9.57
2022-11-01T03:34:46.590Z,10.47
2022-11-01T03:37:14.379Z,11.03
2022-11-01T03:39:44.187Z,8.50
2022-11-01T03:42:14.642Z,8.37
2022-11-01T03:44:43.343Z,10.73
2022-11-01T03:47:11.335Z,9.50
2022-11-01T03:49:41.245Z,9.33
2022-11-01T03:52:09.286Z,10.80
2022-11-01T03:54:37.588Z,9.90
2022-11-01T03:57:05.805Z,9.87
2022-11-01T03:59:34.143Z,9.73
2022-11-01T04:02:02.227Z,9.60
2022-11-01T04:04:30.658Z,9.30
2022-11-01T04:06:59.968Z,11.43
2022-11-01T04:09:28.156Z,8.67
2022-11-01T04:11:55.970Z,8.93
2022-11-01T04:14:42.050Z,9.20
2022-11-01T04:17:27.909Z,9.20
2022-11-01T04:20:13.786Z,12.03
2022-11-01T04:22:43.070Z,16.97
2022-11-01T04:25:11.366Z,9.90
2022-11-01T04:27:39.340Z,10.70
2022-11-01T04:30:08.566Z,13.27
2022-11-01T04:32:36.786Z,13.87
2022-11-01T04:35:05.049Z,14.13
2022-11-01T04:37:32.894Z,10.07
2022-11-01T04:40:01.950Z,9.60
2022-11-01T04:42:29.800Z,11.43
2022-11-01T04:44:57.478Z,11.40
2022-11-01T04:47:25.383Z,14.40
2022-11-01T04:49:53.762Z,9.67
2022-11-01T04:52:21.751Z,7.63
2022-11-01T04:54:49.663Z,8.50
2022-11-01T04:57:24.809Z,9.67
2022-11-01T04:59:53.231Z,9.87
2022-11-01T05:02:22.039Z,7.93
2022-11-01T05:04:50.081Z,10.20
2022-11-01T05:07:18.423Z,8.17
2022-11-01T05:09:46.343Z,9.70
2022-11-01T05:12:14.618Z,10.07
2022-11-01T05:14:43.796Z,9.13
2022-11-01T05:17:12.296Z,8.50
2022-11-01T05:19:40.150Z,8.60
2022-11-01T05:22:08.077Z,10.43
2022-11-01T05:24:36.086Z,11.40
2022-11-01T05:27:04.136Z,11.43
2022-11-01T05:29:33.218Z,9.37
2022-11-01T05:32:03.365Z,10.73
2022-11-01T05:34:31.138Z,9.80
2022-11-01T05:36:59.305Z,10.67
2022-11-01T05:39:27.119Z,10.50
2022-11-01T05:41:58.259Z,8.50
2022-11-01T05:44:29.770Z,9.50
2022-11-01T05:46:58.206Z,10.73
2022-11-01T05:49:27.573Z,12.30
2022-11-01T05:51:55.491Z,11.47
2022-11-01T05:54:23.254Z,12.03
2022-11-01T05:56:51.233Z,10.33
2022-11-01T05:59:19.246Z,9.20
2022-11-01T06:01:47.298Z,9.93
2022-11-01T06:04:15.241Z,10.33
2022-11-01T06:06:44.639Z,9.10
2022-11-01T06:09:13.135Z,10.53
2022-11-01T06:11:41.943Z,10.07
2022-11-01T06:14:11.752Z,7.80
2022-11-01T06:16:39.692Z,9.63
2022-11-01T06:19:08.073Z,7.03
2022-11-01T06:21:36.085Z,8.30
2022-11-01T06:24:06.504Z,10.53
2022-11-01T06:26:34.467Z,10.20
2022-11-01T06:29:03.446Z,9.40
2022-11-01T06:31:31.666Z,10.97
2022-11-01T06:34:00.024Z,8.63
2022-11-01T06:36:27.982Z,9.40
2022-11-01T06:38:56.093Z,8.17
2022-11-01T06:41:25.205Z,10.93
2022-11-01T06:43:53.415Z,15.07
2022-11-01T06:46:21.918Z,12.83
2022-11-01T06:48:49.802Z,10.80
2022-11-01T06:51:17.565Z,9.07
2022-11-01T06:53:45.294Z,7.23
2022-11-01T06:56:13.787Z,7.77
2022-11-01T06:58:43.096Z,6.40
2022-11-01T07:01:11.431Z,10.00
2022-11-01T07:03:39.219Z,8.37
2022-11-01T07:06:07.641Z,8.97
2022-11-01T07:08:35.552Z,7.17
2022-11-01T07:11:03.733Z,6.70
2022-11-01T07:13:33.920Z,8.80
2022-11-01T07:16:04.517Z,8.10
2022-11-01T07:18:32.336Z,15.87
2022-11-01T07:21:02.906Z,9.57
2022-11-01T07:23:30.836Z,7.57
2022-11-01T07:25:59.237Z,8.07
2022-11-01T07:28:27.219Z,8.90
2022-11-01T07:30:55.478Z,6.03
2022-11-01T07:33:24.774Z,9.40
2022-11-01T07:35:53.141Z,10.33
2022-11-01T07:38:21.193Z,8.23
2022-11-01T07:40:50.796Z,10.63
2022-11-01T07:43:19.258Z,12.90
2022-11-01T07:45:47.116Z,8.57
2022-11-01T07:48:15.825Z,6.90
2022-11-01T07:50:45.225Z,5.70
2022-11-01T07:53:14.105Z,6.47
2022-11-01T07:55:41.997Z,9.47
2022-11-01T07:58:10.432Z,18.67
2022-11-01T08:00:38.529Z,14.20
2022-11-01T08:03:07.246Z,6.50
2022-11-01T08:05:35.534Z,7.90
2022-11-01T08:08:06.229Z,7.90
2022-11-01T08:10:34.689Z,5.47
2022-11-01T08:13:04.293Z,9.37
2022-11-01T08:15:32.703Z,6.03
2022-11-01T08:18:01.245Z,8.40
2022-11-01T08:20:30.006Z,5.60
2022-11-01T08:22:58.669Z,6.40
2022-11-01T08:25:28.570Z,5.20
2022-11-01T08:27:56.862Z,5.20
2022-11-01T08:30:25.271Z,5.90
2022-11-01T08:32:59.364Z,5.30
2022-11-01T08:35:27.512Z,6.80
2022-11-01T08:37:55.536Z,5.90
2022-11-01T08:40:23.504Z,4.47
2022-11-01T08:42:53.124Z,5.00
2022-11-01T08:45:21.463Z,6.60
2022-11-01T08:47:49.318Z,4.60
2022-11-01T08:50:18.469Z,4.60
2022-11-01T08:52:46.342Z,8.73
2022-11-01T08:55:14.425Z,8.43
2022-11-01T08:57:42.206Z,4.70
2022-11-01T09:00:13.948Z,4.20
2022-11-01T09:02:41.804Z,4.20
2022-11-01T09:05:10.100Z,6.23
2022-11-01T09:07:38.283Z,9.60
2022-11-01T09:10:07.518Z,4.20
2022-11-01T09:12:35.453Z,4.67
2022-11-01T09:15:03.774Z,5.13
2022-11-01T09:17:33.218Z,4.60
2022-11-01T09:20:01.227Z,3.90
2022-11-01T09:22:29.570Z,4.13
2022-11-01T09:24:58.680Z,3.70
2022-11-01T09:27:26.811Z,3.30
2022-11-01T09:29:54.715Z,8.70
2022-11-01T09:32:22.841Z,4.70
2022-11-01T09:34:52.280Z,3.40
2022-11-01T09:37:20.045Z,4.67
2022-11-01T09:39:47.796Z,3.83
2022-11-01T09:42:19.930Z,4.30
2022-11-01T09:44:48.257Z,3.20
2022-11-01T09:47:17.246Z,4.30
2022-11-01T09:49:47.225Z,5.47
2022-11-01T09:52:19.682Z,3.70
2022-11-01T09:54:47.814Z,4.07
2022-11-01T09:57:19.292Z,3.80
2022-11-01T09:59:49.457Z,3.50
2022-11-01T10:02:30.916Z,3.53
2022-11-01T10:05:07.364Z,4.00
2022-11-01T10:07:41.171Z,3.20
2022-11-01T10:10:18.010Z,5.70
2022-11-01T10:12:51.856Z,5.60
2022-11-01T10:15:28.224Z,5.50
2022-11-01T10:17:56.338Z,3.30
2022-11-01T10:20:25.415Z,6.60
2022-11-01T10:22:54.405Z,9.00
2022-11-01T10:25:23.857Z,3.73
2022-11-01T10:27:54.917Z,5.60
2022-11-01T10:30:23.359Z,3.40
2022-11-01T10:32:52.957Z,4.23
2022-11-01T10:35:22.273Z,2.90
2022-11-01T10:38:04.349Z,4.50
2022-11-01T10:40:44.173Z,6.57
2022-11-01T10:43:14.706Z,3.43
2022-11-01T10:45:47.409Z,6.20
2022-11-01T10:48:22.078Z,3.70
2022-11-01T10:50:50.782Z,3.70
2022-11-01T10:53:18.768Z,3.57
2022-11-01T10:55:49.282Z,5.57
2022-11-01T10:58:20.230Z,7.70
2022-11-01T11:00:48.608Z,3.23
2022-11-01T11:03:19.396Z,3.50
2022-11-01T11:05:48.083Z,3.17
2022-11-01T11:08:16.805Z,4.73
2022-11-01T11:10:44.921Z,4.37
2022-11-01T11:13:14.957Z,3.67
2022-11-01T11:15:45.025Z,3.67
2022-11-01T11:18:18.636Z,3.67
2022-11-01T11:20:46.956Z,3.63
2022-11-01T11:23:14.615Z,3.20
2022-11-01T11:25:44.949Z,3.33
2022-11-01T11:28:21.752Z,4.23
2022-11-01T11:30:49.466Z,3.67
2022-11-01T11:33:17.620Z,4.13
2022-11-01T11:35:59.120Z,4.93
2022-11-01T11:38:43.249Z,3.47
2022-11-01T11:41:12.805Z,3.50
2022-11-01T11:43:42.587Z,5.40
2022-11-01T11:46:15.479Z,4.43
2022-11-01T11:48:50.625Z,6.40
2022-11-01T11:51:18.516Z,4.77
2022-11-01T11:53:46.444Z,5.07
2022-11-01T11:56:14.291Z,4.20
2022-11-01T11:58:44.994Z,4.17
2022-11-01T12:01:14.172Z,4.97
2022-11-01T12:03:46.612Z,3.57
2022-11-01T12:06:17.897Z,5.27
2022-11-01T12:08:47.236Z,4.20
2022-11-01T12:11:15.669Z,3.60
2022-11-01T12:13:46.301Z,5.27
2022-11-01T12:16:20.425Z,5.20
2022-11-01T12:18:50.058Z,5.27
2022-11-01T12:21:19.881Z,4.47
2022-11-01T12:23:48.001Z,4.20
2022-11-01T12:26:16.762Z,4.03
2022-11-01T12:28:46.937Z,3.77
2022-11-01T12:31:16.145Z,4.73
2022-11-01T12:33:48.616Z,4.33
2022-11-01T12:36:16.337Z,9.40
2022-11-01T12:38:44.667Z,4.80
2022-11-01T12:41:30.909Z,4.20
2022-11-01T12:44:31.999Z,8.53
2022-11-01T12:47:04.021Z,4.17
2022-11-01T12:49:34.234Z,4.00
2022-11-01T12:52:04.180Z,4.83
2022-11-01T12:54:34.549Z,7.20
2022-11-01T12:57:02.951Z,4.37
2022-11-01T12:59:35.497Z,4.67
2022-11-01T13:02:11.172Z,4.43
2022-11-01T13:04:41.686Z,6.93
2022-11-01T13:07:22.033Z,4.30
2022-11-01T13:09:55.116Z,4.13
2022-11-01T13:12:27.665Z,3.90
2022-11-01T13:15:02.465Z,4.80
2022-11-01T13:17:35.023Z,4.63
2022-11-01T13:20:06.981Z,4.23
2022-11-01T13:22:37.952Z,4.07
2022-11-01T13:25:07.430Z,4.47
2022-11-01T13:27:37.469Z,6.10
2022-11-01T13:30:10.365Z,5.67
2022-11-01T13:32:41.066Z,3.90
2022-11-01T13:35:33.341Z,5.90
2022-11-01T13:38:04.517Z,4.60
2022-11-01T13:40:34.392Z,4.80
2022-11-01T13:43:05.327Z,4.43
2022-11-01T13:45:59.328Z,3.83
2022-11-01T13:48:31.347Z,4.67
2022-11-01T13:51:06.269Z,4.70
2022-11-01T13:53:35.362Z,6.20
2022-11-01T13:56:05.551Z,4.67
2022-11-01T13:58:33.799Z,7.10
2022-11-01T14:01:31.932Z,4.13
2022-11-01T14:04:24.631Z,8.27
2022-11-01T14:07:05.308Z,4.80
2022-11-01T14:09:33.449Z,7.17
2022-11-01T14:12:12.548Z,4.53
2022-11-01T14:14:50.774Z,4.80
2022-11-01T14:18:01.915Z,3.37
2022-11-01T14:20:53.228Z,5.57
2022-11-01T14:24:02.120Z,5.93
2022-11-01T14:26:55.161Z,5.27
2022-11-01T14:29:23.034Z,5.10
2022-11-01T14:31:53.065Z,5.80
2022-11-01T14:34:30.234Z,5.17
2022-11-01T14:37:17.093Z,7.40
2022-11-01T14:39:48.182Z,4.40
2022-11-01T14:42:20.180Z,5.57
2022-11-01T14:44:50.653Z,8.60
2022-11-01T14:47:25.451Z,6.57
2022-11-01T14:49:54.282Z,7.57
2022-11-01T14:52:27.182Z,5.10
2022-11-01T14:54:57.347Z,6.50
2022-11-01T14:57:31.600Z,5.43
2022-11-01T14:59:59.714Z,3.23
2022-11-01T15:02:28.708Z,5.63
2022-11-01T15:04:58.695Z,5.00
2022-11-01T15:07:30.992Z,5.77
2022-11-01T15:10:00.276Z,6.27
2022-11-01T15:12:32.346Z,3.70
2022-11-01T15:15:00.031Z,8.27
2022-11-01T15:17:29.854Z,4.23
2022-11-01T15:19:58.496Z,6.40
2022-11-01T15:22:29.825Z,5.33
2022-11-01T15:24:58.678Z,5.60
2022-11-01T15:27:30.436Z,4.80
2022-11-01T15:29:58.300Z,4.30
2022-11-01T15:32:29.615Z,5.03
2022-11-01T15:34:58.838Z,3.33
2022-11-01T15:37:31.027Z,5.23
2022-11-01T15:42:32.569Z,4.77
2022-11-01T15:45:15.197Z,5.67
2022-11-01T15:47:43.477Z,5.73
2022-11-01T15:50:11.398Z,6.60
2022-11-01T15:52:40.492Z,5.70
2022-11-01T15:55:10.251Z,5.40
2022-11-01T15:57:39.597Z,4.93
2022-11-01T16:00:08.843Z,6.73
2022-11-01T16:02:40.624Z,6.17
2022-11-01T16:05:09.297Z,8.33
2022-11-01T16:07:37.724Z,4.77
2022-11-01T16:10:09.732Z,3.43
2022-11-01T16:12:38.491Z,8.60
2022-11-01T16:15:07.427Z,7.13
2022-11-01T16:17:36.004Z,5.23
2022-11-01T16:20:06.125Z,4.23
2022-11-01T16:22:36.635Z,4.80
2022-11-01T16:25:16.708Z,8.90
2022-11-01T16:28:00.203Z,4.73
2022-11-01T16:30:50.162Z,4.90
2022-11-01T16:33:19.889Z,4.93
2022-11-01T16:35:48.573Z,6.50
2022-11-01T16:38:29.830Z,5.13
2022-11-01T16:41:00.447Z,3.83
2022-11-01T16:43:29.228Z,7.33
2022-11-01T16:45:57.145Z,6.13
2022-11-01T16:48:25.975Z,8.53
2022-11-01T16:50:55.162Z,6.70
2022-11-01T16:53:23.358Z,6.43
2022-11-01T16:55:53.196Z,8.37
2022-11-01T16:58:27.591Z,8.03
2022-11-01T17:00:56.832Z,6.03
2022-11-01T17:03:24.957Z,3.83
2022-11-01T17:05:56.183Z,5.60
2022-11-01T17:08:25.491Z,4.77
2022-11-01T17:10:53.430Z,3.80
2022-11-01T17:13:21.322Z,7.10
2022-11-01T17:15:52.543Z,4.80
2022-11-01T17:18:25.643Z,11.13
2022-11-01T17:20:56.153Z,3.17
2022-11-01T17:23:24.384Z,6.23
2022-11-01T17:25:52.887Z,4.07
2022-11-01T17:28:21.383Z,9.93
2022-11-01T17:30:50.832Z,4.17
2022-11-01T17:33:18.550Z,10.30
2022-11-01T17:35:46.740Z,14.23
2022-11-01T17:38:15.509Z,6.87
2022-11-01T17:40:45.386Z,7.50
2022-11-01T17:43:16.590Z,5.60
2022-11-01T17:45:44.487Z,3.60
2022-11-01T17:48:13.956Z,5.00
2022-11-01T17:50:41.874Z,6.53
2022-11-01T17:53:10.960Z,8.83
2022-11-01T17:55:39.235Z,7.90
2022-11-01T17:58:07.557Z,4.80
2022-11-01T18:00:36.045Z,5.23
2022-11-01T18:03:04.382Z,7.00
2022-11-01T18:05:33.835Z,4.90
2022-11-01T18:08:02.741Z,5.83
2022-11-01T18:10:36.736Z,5.70
2022-11-01T18:13:29.476Z,5.13
2022-11-01T18:15:59.924Z,12.37
2022-11-01T18:18:38.730Z,8.23
2022-11-01T18:21:11.924Z,6.73
2022-11-01T18:23:40.616Z,7.60
2022-11-01T18:26:12.140Z,4.57
2022-11-01T18:28:40.128Z,4.93
2022-11-01T18:31:13.072Z,9.60
2022-11-01T18:33:42.474Z,5.80
2022-11-01T18:36:14.594Z,8.03
2022-11-01T18:38:44.662Z,7.93
2022-11-01T18:41:13.593Z,6.00
2022-11-01T18:43:41.633Z,6.20
2022-11-01T18:46:30.663Z,3.57
2022-11-01T18:49:01.154Z,5.37
2022-11-01T18:51:31.369Z,5.10
2022-11-01T18:54:23.791Z,4.80
2022-11-01T18:56:52.620Z,4.10
2022-11-01T18:59:27.177Z,5.90
2022-11-01T19:01:56.581Z,9.30
2022-11-01T19:04:26.155Z,9.80
2022-11-01T19:06:57.766Z,4.60
2022-11-01T19:09:28.174Z,4.90
2022-11-01T19:11:59.166Z,4.70
2022-11-01T19:14:27.726Z,7.17
2022-11-01T19:16:56.470Z,4.30
2022-11-01T19:19:24.710Z,4.60
2022-11-01T19:21:52.597Z,5.17
2022-11-01T19:24:31.722Z,11.53
2022-11-01T19:26:59.557Z,6.40
2022-11-01T19:29:30.049Z,5.40
2022-11-01T19:31:59.108Z,5.60
2022-11-01T19:34:28.194Z,3.23
2022-11-01T19:36:56.293Z,4.23
2022-11-01T19:39:24.883Z,3.43
2022-11-01T19:41:55.062Z,7.17
2022-11-01T19:44:24.155Z,3.83
2022-11-01T19:46:54.571Z,7.70
2022-11-01T19:49:24.636Z,4.47
2022-11-01T19:51:59.287Z,6.77
2022-11-01T19:54:27.989Z,6.83
2022-11-01T19:56:59.732Z,3.70
2022-11-01T19:59:27.409Z,3.93
2022-11-01T20:01:56.096Z,4.57
2022-11-01T20:04:27.976Z,5.60
2022-11-01T20:06:58.024Z,5.07
2022-11-01T20:09:27.023Z,4.90
2022-11-01T20:11:55.450Z,3.20
2022-11-01T20:14:25.030Z,6.00
2022-11-01T20:16:53.237Z,4.40
2022-11-01T20:19:21.762Z,4.20
2022-11-01T20:21:50.250Z,8.93
2022-11-01T20:24:18.225Z,5.70
2022-11-01T20:26:46.804Z,5.03
2022-11-01T20:29:14.712Z,3.87
2022-11-01T20:31:44.238Z,3.73
2022-11-01T20:34:12.189Z,6.50
2022-11-01T20:36:39.966Z,4.40
2022-11-01T20:39:10.304Z,4.20
2022-11-01T20:41:41.257Z,4.00
2022-11-01T20:44:09.067Z,4.33
2022-11-01T20:46:37.037Z,5.13
2022-11-01T20:49:06.335Z,8.60
2022-11-01T20:51:34.376Z,7.00
2022-11-01T20:54:02.645Z,5.87
2022-11-01T20:56:30.512Z,5.10
2022-11-01T20:58:58.520Z,6.47
2022-11-01T21:01:26.575Z,6.50
2022-11-01T21:03:55.539Z,5.17
2022-11-01T21:06:26.561Z,8.90
2022-11-01T21:08:54.905Z,8.93
2022-11-01T21:11:43.805Z,3.90
2022-11-01T21:14:14.090Z,4.20
2022-11-01T21:16:41.747Z,5.80
2022-11-01T21:19:14.301Z,4.70
2022-11-01T21:21:47.036Z,4.27
2022-11-01T21:24:32.361Z,9.40
2022-11-01T21:27:19.874Z,3.53
2022-11-01T21:29:48.708Z,4.07
2022-11-01T21:32:27.012Z,3.20
2022-11-01T21:34:55.255Z,5.07
2022-11-01T21:37:25.052Z,5.73
2022-11-01T21:39:55.703Z,5.37
2022-11-01T21:42:31.702Z,4.43
2022-11-01T21:44:59.821Z,4.67
2022-11-01T21:47:28.735Z,7.33
2022-11-01T21:49:56.661Z,5.30
2022-11-01T21:52:25.942Z,5.47
2022-11-01T21:54:54.269Z,9.20
2022-11-01T21:57:22.334Z,6.67
2022-11-01T21:59:52.247Z,5.70
2022-11-01T22:02:20.215Z,4.10
2022-11-01T22:04:48.029Z,3.30
2022-11-01T22:07:15.882Z,3.00
2022-11-01T22:09:44.982Z,5.00
2022-11-01T22:12:12.772Z,3.67
2022-11-01T22:14:40.611Z,8.83
2022-11-01T22:17:08.907Z,6.40
2022-11-01T22:19:36.775Z,5.60
2022-11-01T22:22:05.126Z,5.07
2022-11-01T22:24:32.952Z,6.33
2022-11-01T22:27:02.550Z,5.50
2022-11-01T22:29:30.393Z,4.03
2022-11-01T22:31:58.309Z,8.83
2022-11-01T22:34:26.210Z,3.93
2022-11-01T22:36:54.211Z,5.10
2022-11-01T22:39:23.349Z,6.63
2022-11-01T22:41:51.247Z,6.07
2022-11-01T22:44:23.972Z,4.67
2022-11-01T22:46:57.982Z,3.37
2022-11-01T22:49:27.551Z,4.53
2022-11-01T22:51:56.260Z,6.23
2022-11-01T22:54:31.176Z,8.73
2022-11-01T22:57:01.994Z,5.80
2022-11-01T22:59:33.448Z,5.00
2022-11-01T23:02:05.092Z,6.07
2022-11-01T23:04:34.224Z,5.80
2022-11-01T23:07:02.441Z,4.20
2022-11-01T23:09:30.672Z,6.30
2022-11-01T23:12:16.289Z,7.90
2022-11-01T23:14:46.775Z,6.27
2022-11-01T23:17:22.269Z,7.37
2022-11-01T23:19:52.472Z,1.60
2022-11-01T23:22:21.420Z,4.70
2022-11-01T23:24:50.586Z,4.43
2022-11-01T23:27:18.663Z,4.27
2022-11-01T23:29:49.277Z,8.73
2022-11-01T23:32:17.187Z,5.90
2022-11-01T23:34:45.981Z,4.80
2022-11-01T23:37:15.449Z,3.63
2022-11-01T23:39:43.660Z,7.03
2022-11-01T23:42:16.600Z,4.37
2022-11-01T23:44:44.424Z,4.63
2022-11-01T23:47:23.516Z,3.67
2022-11-01T23:50:03.322Z,3.57
2022-11-01T23:52:41.970Z,5.47
2022-11-01T23:55:17.577Z,4.40
2022-11-01T23:57:45.510Z,4.30
